Time;durP1;ratioP1;P1;durP2;ratioP2;P2;SDS_P1;SDS_P2;PMS_P1;PMS_P2;Temp;Humidity;BMP_temperature;BMP_pressure;BME280_temperature;BME280_humidity;BME280_pressure;Samples;Min_cycle;Max_cycle;Signal;HPM_P1;HPM_P2
2023/06/27 00:00:14;;;;;;;4.28;3.65;;;;;;;27.04;53.24;98670.19;2063857;28;20050;-51
2023/06/27 00:01:15;;;;;;;6.18;4.30;;;;;;;27.00;53.19;98658.19;2063543;28;20146;-48
2023/06/27 00:02:17;;;;;;;6.72;3.70;;;;;;;27.01;53.27;98659.81;2065582;28;22150;-48
2023/06/27 00:03:18;;;;;;;8.88;4.00;;;;;;;27.00;53.16;98652.72;2066840;28;20111;-49
2023/06/27 00:04:23;;;;;;;7.15;4.07;;;;;;;26.99;53.28;98659.22;2064443;28;20558;-50
2023/06/27 00:05:23;;;;;;;6.80;3.75;;;;;;;27.00;53.12;98653.53;2062875;28;20054;-48
2023/06/27 00:06:25;;;;;;;7.55;4.50;;;;;;;26.96;53.29;98655.13;2065839;28;20141;-48
2023/06/27 00:07:27;;;;;;;8.27;4.40;;;;;;;27.01;53.39;98659.81;2063227;28;20624;-47
2023/06/27 00:08:29;;;;;;;6.63;3.88;;;;;;;27.04;53.58;98656.56;2063620;28;20526;-51
2023/06/27 00:09:30;;;;;;;5.80;3.95;;;;;;;27.04;53.52;98653.84;2063346;28;20054;-48
2023/06/27 00:10:32;;;;;;;4.05;3.30;;;;;;;27.05;53.38;98655.47;2065596;28;20600;-48
2023/06/27 00:11:34;;;;;;;7.43;4.78;;;;;;;27.05;53.34;98658.19;2064531;28;20081;-48
2023/06/27 00:12:36;;;;;;;7.95;4.30;;;;;;;27.07;53.21;98653.31;2062907;28;20126;-50
2023/06/27 00:13:40;;;;;;;6.65;4.13;;;;;;;27.05;53.34;98656.31;2065072;28;20057;-48
2023/06/27 00:14:44;;;;;;;5.07;4.32;;;;;;;27.04;53.92;98649.22;2064913;28;20048;-49
2023/06/27 00:15:46;;;;;;;7.00;4.07;;;;;;;27.01;53.47;98649.72;2067034;28;20049;-49
2023/06/27 00:16:49;;;;;;;8.50;4.00;;;;;;;26.99;54.07;98642.91;2064760;28;20137;-47
2023/06/27 00:17:51;;;;;;;11.65;4.50;;;;;;;26.93;54.08;98636.59;2065267;28;20427;-48
2023/06/27 00:18:53;;;;;;;7.35;4.53;;;;;;;26.93;54.31;98642.84;2063480;28;20041;-48
2023/06/27 00:19:58;;;;;;;8.23;3.88;;;;;;;26.86;54.93;98642.25;2063205;28;20049;-47
2023/06/27 00:20:59;;;;;;;12.02;5.30;;;;;;;26.81;54.72;98639.47;2064945;28;20056;-47
2023/06/27 00:22:09;;;;;;;6.57;4.45;;;;;;;26.84;54.51;98636.25;2065347;28;20056;-49
2023/06/27 00:23:17;;;;;;;5.63;3.80;;;;;;;26.90;54.42;98639.84;2063069;28;20056;-46
2023/06/27 00:24:19;;;;;;;6.78;5.22;;;;;;;26.93;54.11;98642.84;2061777;28;20050;-48
2023/06/27 00:25:20;;;;;;;7.90;4.93;;;;;;;26.95;54.56;98643.41;2063106;28;20051;-48
2023/06/27 00:26:22;;;;;;;4.05;3.58;;;;;;;27.01;54.02;98646.19;2063883;28;20042;-49
2023/06/27 00:27:24;;;;;;;6.03;3.67;;;;;;;27.04;54.22;98642.94;2063872;28;20057;-47
2023/06/27 00:28:26;;;;;;;7.97;3.65;;;;;;;27.05;53.99;98644.59;2063739;28;20488;-47
2023/06/27 00:29:27;;;;;;;5.68;4.20;;;;;;;27.05;53.80;98644.59;2064211;28;20057;-48
2023/06/27 00:30:28;;;;;;;5.20;3.95;;;;;;;27.03;54.22;98639.41;2065368;28;20057;-48
2023/06/27 00:31:29;;;;;;;6.60;3.83;;;;;;;27.04;54.32;98645.69;2063504;28;20050;-48
2023/06/27 00:32:31;;;;;;;11.15;4.22;;;;;;;27.03;54.20;98642.13;2065450;28;20133;-49
2023/06/27 00:33:32;;;;;;;6.40;3.80;;;;;;;27.02;54.13;98639.66;2063462;28;20131;-51
2023/06/27 00:34:34;;;;;;;5.57;3.60;;;;;;;27.01;54.54;98638.03;2066170;28;20163;-49
2023/06/27 00:35:35;;;;;;;11.57;4.30;;;;;;;27.01;54.54;98638.03;2065794;28;20535;-49
2023/06/27 00:36:37;;;;;;;5.68;3.70;;;;;;;27.01;54.21;98641.56;2062947;28;20445;-49
2023/06/27 00:37:38;;;;;;;8.95;4.65;;;;;;;27.02;54.12;98635.03;2063741;28;20053;-50
2023/06/27 00:38:39;;;;;;;5.03;3.35;;;;;;;27.03;54.25;98641.31;2063587;28;20117;-48
2023/06/27 00:39:40;;;;;;;7.85;4.88;;;;;;;27.06;53.81;98638.09;2060863;28;20907;-51
2023/06/27 00:40:42;;;;;;;5.18;3.70;;;;;;;27.09;54.07;98643.00;2065016;28;20064;-47
2023/06/27 00:41:43;;;;;;;7.75;4.07;;;;;;;27.11;53.28;98646.28;2063253;28;20782;-47
2023/06/27 00:42:46;;;;;;;5.47;3.80;;;;;;;27.14;52.83;98632.97;2064669;28;20058;-48
2023/06/27 00:43:47;;;;;;;4.28;3.47;;;;;;;27.16;52.69;98636.31;2062385;28;20073;-47
2023/06/27 00:44:49;;;;;;;5.43;3.60;;;;;;;27.16;52.81;98646.34;2065569;28;20046;-50
2023/06/27 00:45:50;;;;;;;7.05;3.92;;;;;;;27.16;53.21;98647.19;2064284;28;20046;-51
2023/06/27 00:46:53;;;;;;;6.60;3.65;;;;;;;27.14;53.42;98641.16;2061963;28;20477;-49
2023/06/27 00:47:54;;;;;;;4.57;4.03;;;;;;;27.13;53.23;98638.66;2061468;28;20112;-48
2023/06/27 00:48:55;;;;;;;4.85;3.65;;;;;;;27.12;53.23;98639.75;2065806;28;21797;-50
2023/06/27 00:49:56;;;;;;;5.22;3.60;;;;;;;27.12;53.60;98640.56;2064690;28;20554;-51
2023/06/27 00:50:59;;;;;;;7.07;4.18;;;;;;;27.13;53.35;98641.38;2066080;28;20046;-47
2023/06/27 00:52:01;;;;;;;7.55;4.45;;;;;;;27.15;53.23;98647.41;2062392;28;20046;-52
2023/06/27 00:53:03;;;;;;;6.55;4.30;;;;;;;27.15;53.16;98639.22;2064250;28;23699;-51
2023/06/27 00:54:04;;;;;;;3.90;3.38;;;;;;;27.18;52.52;98647.72;2067179;28;20670;-50
2023/06/27 00:55:08;;;;;;;5.82;3.30;;;;;;;27.21;52.58;98651.84;2062091;28;20046;-54
2023/06/27 00:56:10;;;;;;;6.40;3.88;;;;;;;27.20;52.32;98639.31;2063801;28;20046;-49
2023/06/27 00:57:12;;;;;;;6.72;3.38;;;;;;;27.21;52.48;98637.41;2063347;28;20575;-50
2023/06/27 00:58:15;;;;;;;6.05;3.63;;;;;;;27.21;52.37;98637.41;2065582;28;20081;-53
2023/06/27 00:59:17;;;;;;;9.35;4.20;;;;;;;27.20;52.44;98630.34;2066549;28;20045;-53
2023/06/27 01:00:18;;;;;;;6.72;4.55;;;;;;;27.20;52.60;98633.06;2065186;28;20057;-46
2023/06/27 01:01:21;;;;;;;5.00;3.70;;;;;;;27.17;52.55;98637.94;2063986;28;20398;-48
2023/06/27 01:02:23;;;;;;;6.10;4.30;;;;;;;27.17;52.72;98634.38;2060865;28;20054;-51
2023/06/27 01:03:30;;;;;;;7.13;3.55;;;;;;;27.15;52.78;98633.78;2063889;28;20054;-52
2023/06/27 01:04:31;;;;;;;5.28;3.42;;;;;;;27.14;52.89;98638.41;2063829;28;20085;-53
2023/06/27 01:05:34;;;;;;;7.05;4.47;;;;;;;27.16;52.81;98632.72;2063824;28;20050;-47
2023/06/27 01:06:44;;;;;;;5.80;3.58;;;;;;;27.17;52.27;98635.22;2066093;28;20053;-51
2023/06/27 01:07:52;;;;;;;5.68;3.72;;;;;;;27.18;52.25;98633.31;2061514;28;20049;-52
2023/06/27 01:09:01;;;;;;;5.13;3.30;;;;;;;27.18;52.56;98628.66;2064302;28;20082;-52
2023/06/27 01:10:09;;;;;;;5.53;3.50;;;;;;;27.18;52.51;98633.31;2063830;28;20047;-51
2023/06/27 01:11:15;;;;;;;4.93;3.50;;;;;;;27.20;52.20;98630.34;2063545;28;20166;-49
2023/06/27 01:12:21;;;;;;;5.78;3.33;;;;;;;27.22;52.00;98628.16;2063064;28;20073;-52
2023/06/27 01:13:29;;;;;;;4.60;3.58;;;;;;;27.24;51.91;98636.88;2063463;28;20191;-49
2023/06/27 01:14:32;;;;;;;4.93;4.07;;;;;;;27.22;51.94;98629.00;2065893;28;20456;-51
2023/06/27 01:15:35;;;;;;;6.75;3.65;;;;;;;27.21;51.71;98630.06;2063375;28;20145;-47
2023/06/27 01:16:39;;;;;;;4.65;3.40;;;;;;;27.25;51.94;98636.63;2064355;28;20050;-54
2023/06/27 01:17:41;;;;;;;3.63;3.28;;;;;;;27.27;51.69;98637.19;2063047;28;20045;-50
2023/06/27 01:18:44;;;;;;;5.05;3.40;;;;;;;27.26;51.81;98630.09;2064439;28;20053;-51
2023/06/27 01:19:46;;;;;;;5.57;3.67;;;;;;;27.26;51.87;98630.09;2061138;28;20557;-50
2023/06/27 01:20:49;;;;;;;4.30;3.38;;;;;;;27.27;51.73;98628.19;2063479;28;20045;-52
2023/06/27 01:21:58;;;;;;;4.72;3.05;;;;;;;27.27;51.25;98630.91;2063843;28;20555;-53
2023/06/27 01:23:22;;;;;;;5.03;3.58;;;;;;;27.24;51.97;98629.53;2064674;28;20046;-48
2023/06/27 01:24:25;;;;;;;6.72;4.20;;;;;;;27.23;51.64;98622.44;2062603;28;20065;-51
2023/06/27 01:25:27;;;;;;;2.95;2.65;;;;;;;27.23;51.65;98625.19;2063410;28;20049;-51
2023/06/27 01:26:28;;;;;;;6.35;3.70;;;;;;;27.23;51.90;98622.44;2064814;28;20099;-50
2023/06/27 01:27:30;;;;;;;5.65;3.58;;;;;;;27.21;51.89;98621.06;2062427;28;20487;-52
2023/06/27 01:28:32;;;;;;;6.85;4.28;;;;;;;27.16;52.08;98622.69;2062892;28;20050;-52
2023/06/27 01:29:34;;;;;;;5.70;4.13;;;;;;;27.19;51.77;98626.75;2065393;28;20129;-50
2023/06/27 01:30:35;;;;;;;5.15;3.80;;;;;;;27.21;52.07;98627.31;2063581;28;20841;-47
2023/06/27 01:31:42;;;;;;;7.90;4.07;;;;;;;27.24;51.79;98626.81;2063469;28;20049;-52
2023/06/27 01:32:49;;;;;;;7.72;3.58;;;;;;;27.24;51.78;98626.00;2063512;28;20057;-50
2023/06/27 01:33:55;;;;;;;7.88;4.32;;;;;;;27.22;51.66;98618.09;2062181;28;20050;-52
2023/06/27 01:35:03;;;;;;;3.72;3.25;;;;;;;27.19;51.80;98621.31;2063898;28;20058;-50
2023/06/27 01:36:10;;;;;;;5.30;3.78;;;;;;;27.18;51.62;98622.41;2063149;28;20054;-48
2023/06/27 01:37:17;;;;;;;6.50;3.40;;;;;;;27.16;51.83;98619.97;2058301;28;20049;-50
2023/06/27 01:38:25;;;;;;;6.18;3.45;;;;;;;27.12;51.90;98620.69;2061363;28;20423;-52
2023/06/27 01:39:32;;;;;;;7.43;4.35;;;;;;;27.08;52.00;98616.84;2062535;28;20502;-52
2023/06/27 01:40:37;;;;;;;6.20;4.50;;;;;;;27.07;51.81;98612.50;2062752;28;20057;-53
2023/06/27 01:41:40;;;;;;;5.10;3.70;;;;;;;27.07;51.75;98612.50;2064468;28;20243;-51
2023/06/27 01:42:44;;;;;;;8.13;4.60;;;;;;;27.07;51.88;98610.59;2064299;28;20091;-51
2023/06/27 01:43:46;;;;;;;4.85;3.63;;;;;;;27.07;51.75;98615.22;2061959;28;20049;-50
2023/06/27 01:44:50;;;;;;;5.00;3.63;;;;;;;27.08;51.31;98606.78;2062756;28;20046;-53
2023/06/27 01:45:54;;;;;;;7.22;4.05;;;;;;;27.12;51.50;98604.38;2064861;28;20057;-53
2023/06/27 01:46:54;;;;;;;5.97;3.60;;;;;;;27.14;51.64;98599.50;2062740;28;20065;-51
2023/06/27 01:47:57;;;;;;;4.60;3.47;;;;;;;27.16;51.22;98598.19;2064152;28;20058;-51
2023/06/27 01:48:59;;;;;;;5.82;3.75;;;;;;;27.17;51.69;98596.28;2065299;28;20054;-49
2023/06/27 01:50:02;;;;;;;5.63;4.38;;;;;;;27.12;51.75;98594.28;2066231;28;21058;-50
2023/06/27 01:51:07;;;;;;;7.00;4.05;;;;;;;27.09;52.08;98602.97;2064280;28;20050;-48
2023/06/27 01:52:12;;;;;;;4.78;4.13;;;;;;;27.13;51.98;98600.56;2062529;28;20475;-49
2023/06/27 01:53:13;;;;;;;4.72;3.00;;;;;;;27.15;51.77;98601.94;2062420;28;20093;-49
2023/06/27 01:54:14;;;;;;;5.85;3.33;;;;;;;27.17;51.58;98599.81;2063425;28;20057;-49
2023/06/27 01:55:17;;;;;;;6.32;4.28;;;;;;;27.17;51.73;98601.72;2061303;28;20070;-51
2023/06/27 01:56:19;;;;;;;7.80;4.25;;;;;;;27.16;51.43;98608.22;2064038;28;20046;-48
2023/06/27 01:57:20;;;;;;;5.00;3.47;;;;;;;27.17;51.36;98609.88;2065190;28;20559;-49
2023/06/27 01:58:22;;;;;;;4.65;3.83;;;;;;;27.18;51.47;98606.06;2061250;28;20061;-49
2023/06/27 01:59:23;;;;;;;4.75;3.25;;;;;;;27.20;51.53;98598.47;2064877;28;20053;-47
2023/06/27 02:00:26;;;;;;;5.40;2.65;;;;;;;27.22;51.67;98603.63;2061957;28;20064;-48
2023/06/27 02:01:26;;;;;;;6.75;4.18;;;;;;;27.26;51.34;98596.59;2062747;28;20049;-47
2023/06/27 02:02:28;;;;;;;5.80;3.30;;;;;;;27.27;51.35;98599.06;2060789;28;20058;-50
2023/06/27 02:03:29;;;;;;;6.22;3.55;;;;;;;27.28;51.26;98598.00;2061682;28;20078;-48
2023/06/27 02:04:31;;;;;;;5.40;3.70;;;;;;;27.27;51.44;98596.31;2063058;28;20053;-51
2023/06/27 02:05:31;;;;;;;7.07;4.25;;;;;;;27.26;51.24;98586.53;2063745;28;20049;-48
2023/06/27 02:06:33;;;;;;;4.30;3.35;;;;;;;27.26;51.32;98585.72;2063251;28;20048;-50
2023/06/27 02:07:34;;;;;;;4.07;3.65;;;;;;;27.23;51.29;98583.50;2061216;28;20855;-48
2023/06/27 02:08:36;;;;;;;3.88;3.10;;;;;;;27.21;51.14;98583.75;2060988;28;20052;-50
2023/06/27 02:09:36;;;;;;;5.47;3.75;;;;;;;27.16;51.44;98583.72;2061892;28;20057;-49
2023/06/27 02:10:40;;;;;;;6.85;4.13;;;;;;;27.14;51.60;98575.00;2062172;28;20057;-52
2023/06/27 02:11:41;;;;;;;8.15;5.15;;;;;;;27.13;51.30;98585.03;2060492;28;20050;-47
2023/06/27 02:12:43;;;;;;;6.57;4.20;;;;;;;27.08;51.62;98576.00;2061046;28;20045;-50
2023/06/27 02:13:43;;;;;;;7.28;4.20;;;;;;;27.06;51.42;98575.47;2060181;28;20532;-49
2023/06/27 02:14:45;;;;;;;6.38;4.30;;;;;;;26.99;51.75;98574.84;2061657;28;20058;-48
2023/06/27 02:15:46;;;;;;;4.25;3.83;;;;;;;26.89;52.09;98570.97;2065255;28;20551;-49
2023/06/27 02:16:48;;;;;;;6.85;3.80;;;;;;;26.87;52.52;98575.03;2061093;28;20053;-50
2023/06/27 02:17:49;;;;;;;8.80;4.63;;;;;;;26.91;52.25;98566.09;2063330;28;20515;-49
2023/06/27 02:18:51;;;;;;;5.75;3.70;;;;;;;27.00;52.12;98571.06;2061417;28;20054;-51
2023/06/27 02:19:51;;;;;;;4.55;4.07;;;;;;;27.03;51.87;98559.66;2063176;28;20053;-50
2023/06/27 02:20:53;;;;;;;6.55;3.55;;;;;;;27.09;51.87;98569.50;2061340;28;20042;-49
2023/06/27 02:21:54;;;;;;;5.22;3.92;;;;;;;27.04;52.03;98566.72;2061375;28;20046;-51
2023/06/27 02:22:56;;;;;;;6.18;4.47;;;;;;;26.87;52.06;98561.44;2060954;28;20058;-50
2023/06/27 02:23:56;;;;;;;7.85;4.22;;;;;;;26.85;52.22;98560.88;2065493;28;20049;-51
2023/06/27 02:24:58;;;;;;;7.50;4.15;;;;;;;26.86;52.52;98562.53;2062299;28;20440;-50
2023/06/27 02:26:02;;;;;;;11.25;4.50;;;;;;;26.87;52.21;98556.81;2063833;28;20062;-51
2023/06/27 02:27:04;;;;;;;8.27;4.03;;;;;;;26.86;52.29;98555.19;2060298;28;20054;-48
2023/06/27 02:28:05;;;;;;;5.93;4.22;;;;;;;26.86;52.30;98552.44;2059713;28;20053;-52
2023/06/27 02:29:07;;;;;;;5.28;3.85;;;;;;;26.89;52.24;98562.00;2058753;28;20400;-50
2023/06/27 02:30:09;;;;;;;5.78;3.85;;;;;;;26.86;51.84;98563.34;2061071;28;20050;-50
2023/06/27 02:31:11;;;;;;;5.68;3.58;;;;;;;26.85;51.97;98564.41;2059809;28;20054;-47
2023/06/27 02:32:11;;;;;;;4.15;3.83;;;;;;;26.83;52.12;98563.88;2062435;28;20062;-47
2023/06/27 02:33:13;;;;;;;4.97;3.95;;;;;;;26.81;52.33;98566.00;2062322;28;20143;-48
2023/06/27 02:34:14;;;;;;;6.22;3.92;;;;;;;26.81;51.98;98562.47;2061699;28;20685;-47
2023/06/27 02:35:16;;;;;;;8.10;4.60;;;;;;;26.81;51.91;98562.47;2058358;28;20050;-48
2023/06/27 02:36:16;;;;;;;4.05;3.65;;;;;;;26.83;52.13;98563.00;2062014;28;20472;-48
2023/06/27 02:37:18;;;;;;;17.58;6.38;;;;;;;26.82;52.01;98564.91;2061478;28;20073;-49
2023/06/27 02:38:19;;;;;;;4.88;3.88;;;;;;;26.83;52.19;98572.03;2062167;28;20819;-49
2023/06/27 02:39:20;;;;;;;6.25;3.78;;;;;;;26.83;51.74;98572.03;2061292;28;20065;-50
2023/06/27 02:40:22;;;;;;;4.28;3.22;;;;;;;26.85;51.93;98569.03;2064555;28;20496;-50
2023/06/27 02:41:25;;;;;;;7.28;4.20;;;;;;;26.89;51.97;98568.25;2061878;28;20073;-49
2023/06/27 02:42:26;;;;;;;8.85;4.15;;;;;;;26.94;51.51;98568.31;2062341;28;20065;-52
2023/06/27 02:43:27;;;;;;;6.93;4.03;;;;;;;26.99;51.61;98569.41;2060369;28;20083;-50
2023/06/27 02:44:29;;;;;;;7.72;3.97;;;;;;;27.02;51.34;98564.25;2062987;28;20172;-48
2023/06/27 02:45:30;;;;;;;6.05;4.03;;;;;;;27.06;51.92;98567.31;2062126;28;20058;-51
2023/06/27 02:46:32;;;;;;;5.47;3.38;;;;;;;27.05;51.91;98569.22;2061445;28;20484;-47
2023/06/27 02:47:32;;;;;;;7.07;3.58;;;;;;;27.07;51.75;98567.03;2062818;28;20054;-47
2023/06/27 02:48:34;;;;;;;6.43;4.13;;;;;;;27.09;51.61;98564.06;2059254;28;20140;-51
2023/06/27 02:49:35;;;;;;;4.82;3.78;;;;;;;27.09;51.33;98566.78;2060720;28;20054;-50
2023/06/27 02:50:37;;;;;;;6.95;4.32;;;;;;;27.12;51.60;98568.97;2062322;28;20902;-51
2023/06/27 02:51:38;;;;;;;7.93;3.60;;;;;;;27.12;51.68;98561.63;2063019;28;20780;-50
2023/06/27 02:52:40;;;;;;;6.22;4.25;;;;;;;27.12;51.39;98561.63;2059784;28;20117;-48
2023/06/27 02:53:41;;;;;;;4.45;3.38;;;;;;;27.11;51.57;98562.72;2062030;28;20721;-51
2023/06/27 02:54:43;;;;;;;5.47;3.42;;;;;;;27.12;51.73;98558.09;2062608;28;20128;-50
2023/06/27 02:55:43;;;;;;;4.68;3.63;;;;;;;27.13;51.28;98560.53;2061556;28;20046;-48
2023/06/27 02:56:47;;;;;;;6.32;3.35;;;;;;;27.15;51.60;98552.13;2060805;28;20129;-48
2023/06/27 02:57:47;;;;;;;6.32;3.63;;;;;;;27.14;51.59;98555.94;2061019;28;20476;-48
2023/06/27 02:58:49;;;;;;;4.40;3.75;;;;;;;27.14;51.52;98558.66;2060972;28;20049;-48
2023/06/27 02:59:50;;;;;;;5.40;3.95;;;;;;;27.06;51.20;98553.69;2065085;28;20081;-49
2023/06/27 03:00:52;;;;;;;4.43;3.40;;;;;;;27.03;51.53;98554.22;2060533;28;20594;-47
2023/06/27 03:01:53;;;;;;;7.10;3.78;;;;;;;26.93;51.85;98550.31;2060208;28;20046;-48
2023/06/27 03:02:55;;;;;;;6.03;3.88;;;;;;;26.85;52.07;98556.22;2061488;28;20706;-49
2023/06/27 03:03:55;;;;;;;6.30;3.47;;;;;;;26.77;51.78;98547.72;2060533;28;20053;-48
2023/06/27 03:04:57;;;;;;;5.90;3.95;;;;;;;26.80;51.77;98558.09;2061780;28;20128;-48
2023/06/27 03:06:02;;;;;;;3.85;3.17;;;;;;;26.78;51.91;98557.56;2061495;28;20092;-48
2023/06/27 03:07:04;;;;;;;9.23;4.47;;;;;;;26.75;51.99;98556.16;2062598;28;20447;-49
2023/06/27 03:08:05;;;;;;;7.40;3.92;;;;;;;26.75;51.71;98553.44;2061370;28;20068;-47
2023/06/27 03:09:07;;;;;;;7.53;4.35;;;;;;;26.76;51.76;98549.63;2062082;28;20073;-49
2023/06/27 03:10:09;;;;;;;7.80;3.72;;;;;;;26.77;51.76;98547.72;2059805;28;20056;-50
2023/06/27 03:11:11;;;;;;;6.97;3.78;;;;;;;26.76;51.58;98546.91;2060788;28;20049;-48
2023/06/27 03:12:13;;;;;;;10.20;4.07;;;;;;;26.77;51.61;98556.72;2061019;28;20975;-48
2023/06/27 03:13:15;;;;;;;3.47;3.17;;;;;;;26.79;51.57;98546.41;2061527;28;20084;-48
2023/06/27 03:14:18;;;;;;;7.32;3.47;;;;;;;26.81;51.61;98555.13;2064040;28;20385;-47
2023/06/27 03:15:20;;;;;;;7.13;3.85;;;;;;;26.81;51.68;98552.41;2060631;28;20046;-51
2023/06/27 03:16:20;;;;;;;4.18;3.47;;;;;;;26.80;51.52;98556.22;2062501;28;20571;-48
2023/06/27 03:17:22;;;;;;;7.47;4.88;;;;;;;26.81;51.42;98557.03;2059630;28;20056;-48
2023/06/27 03:18:23;;;;;;;6.50;3.70;;;;;;;26.80;51.25;98556.22;2060678;28;20145;-48
2023/06/27 03:19:25;;;;;;;8.15;3.92;;;;;;;26.83;51.32;98557.56;2059167;28;20529;-48
2023/06/27 03:20:26;;;;;;;7.70;3.05;;;;;;;26.84;51.45;98557.31;2063882;28;20140;-48
2023/06/27 03:21:28;;;;;;;5.28;3.63;;;;;;;26.89;51.13;98559.28;2061544;28;20054;-51
2023/06/27 03:22:28;;;;;;;5.93;4.07;;;;;;;26.92;51.01;98565.00;2064090;28;20092;-48
2023/06/27 03:23:30;;;;;;;5.78;3.67;;;;;;;26.94;50.90;98562.88;2061873;28;20840;-48
2023/06/27 03:24:31;;;;;;;6.32;3.25;;;;;;;26.96;50.98;98568.03;2062224;28;20097;-48
2023/06/27 03:25:33;;;;;;;5.43;3.90;;;;;;;26.99;51.25;98569.41;2061302;28;20842;-51
2023/06/27 03:26:34;;;;;;;6.20;3.38;;;;;;;27.00;51.58;98565.63;2060485;28;20062;-51
2023/06/27 03:27:37;;;;;;;5.15;3.03;;;;;;;27.01;51.76;98561.81;2064704;28;20041;-48
2023/06/27 03:28:40;;;;;;;5.43;3.90;;;;;;;27.01;51.10;98562.63;2063708;28;20046;-47
2023/06/27 03:29:41;;;;;;;4.63;2.92;;;;;;;27.03;51.42;98565.09;2060373;28;20431;-48
2023/06/27 03:30:43;;;;;;;7.68;4.15;;;;;;;27.05;51.22;98571.09;2064094;28;20057;-48
2023/06/27 03:31:45;;;;;;;3.65;2.90;;;;;;;27.05;51.40;98569.22;2063491;28;20047;-48
2023/06/27 03:32:46;;;;;;;5.28;3.80;;;;;;;27.04;51.34;98558.56;2061182;28;20057;-48
2023/06/27 03:33:47;;;;;;;4.18;3.60;;;;;;;27.05;51.25;98562.91;2063223;28;20046;-49
2023/06/27 03:34:48;;;;;;;5.78;4.50;;;;;;;27.02;50.98;98563.44;2061935;28;20077;-48
2023/06/27 03:35:50;;;;;;;5.20;3.05;;;;;;;27.01;50.86;98561.81;2063663;28;20050;-48
2023/06/27 03:36:52;;;;;;;4.63;3.17;;;;;;;27.00;50.49;98561.00;2062070;28;20595;-48
2023/06/27 03:37:53;;;;;;;6.95;3.38;;;;;;;27.03;50.69;98565.09;2062824;28;20093;-50
2023/06/27 03:38:55;;;;;;;6.60;3.60;;;;;;;27.03;50.49;98565.09;2062045;28;20125;-51
2023/06/27 03:39:56;;;;;;;4.72;3.17;;;;;;;27.06;50.33;98567.31;2059658;28;20057;-49
2023/06/27 03:40:58;;;;;;;4.35;3.65;;;;;;;27.05;51.08;98569.22;2064064;28;20054;-50
2023/06/27 03:41:59;;;;;;;6.03;3.28;;;;;;;27.06;50.39;98564.59;2063723;28;20727;-48
2023/06/27 03:43:02;;;;;;;7.07;3.05;;;;;;;27.09;50.88;98561.34;2061006;28;20046;-48
2023/06/27 03:44:05;;;;;;;6.80;2.72;;;;;;;27.08;51.10;98559.66;2062999;28;20078;-47
2023/06/27 03:45:07;;;;;;;4.68;3.40;;;;;;;27.09;51.05;98564.06;2061786;28;20046;-49
2023/06/27 03:46:12;;;;;;;7.25;3.28;;;;;;;27.08;50.94;98563.25;2062405;28;20057;-48
2023/06/27 03:47:13;;;;;;;7.57;3.70;;;;;;;27.09;50.72;98558.59;2060956;28;20611;-48
2023/06/27 03:48:14;;;;;;;4.15;2.80;;;;;;;27.09;50.89;98553.16;2061851;28;20089;-48
2023/06/27 03:49:16;;;;;;;6.63;3.95;;;;;;;27.10;50.96;98555.59;2058600;28;20423;-49
2023/06/27 03:50:17;;;;;;;4.47;3.53;;;;;;;27.10;50.62;98557.53;2063092;28;22010;-47
2023/06/27 03:51:19;;;;;;;5.20;3.75;;;;;;;27.10;50.48;98560.25;2059775;28;20050;-51
2023/06/27 03:52:19;;;;;;;4.60;3.75;;;;;;;27.09;50.63;98562.16;2062150;28;20060;-48
2023/06/27 03:53:21;;;;;;;5.20;2.80;;;;;;;27.08;50.98;98562.41;2062126;28;20140;-48
2023/06/27 03:54:22;;;;;;;5.60;3.45;;;;;;;27.10;51.03;98560.25;2061356;28;20046;-48
2023/06/27 03:55:24;;;;;;;10.35;4.25;;;;;;;27.09;50.88;98562.16;2062506;28;20060;-48
2023/06/27 03:56:24;;;;;;;3.92;3.38;;;;;;;27.10;50.82;98560.25;2059817;28;20141;-47
2023/06/27 03:57:27;;;;;;;4.75;3.00;;;;;;;27.09;50.70;98566.78;2063043;28;20061;-47
2023/06/27 03:58:29;;;;;;;4.72;3.47;;;;;;;27.09;50.67;98566.78;2064117;28;20066;-50
2023/06/27 03:59:31;;;;;;;7.90;3.47;;;;;;;27.08;50.22;98557.78;2059394;28;20120;-49
2023/06/27 04:00:31;;;;;;;6.15;3.83;;;;;;;27.07;50.54;98558.84;2058467;28;20050;-49
2023/06/27 04:01:34;;;;;;;4.10;3.20;;;;;;;27.07;50.33;98560.75;2061021;28;20056;-51
2023/06/27 04:02:35;;;;;;;6.18;3.28;;;;;;;27.07;50.23;98561.59;2061547;28;20188;-49
2023/06/27 04:03:37;;;;;;;4.78;3.38;;;;;;;27.07;50.42;98561.59;2061368;28;20550;-50
2023/06/27 04:04:37;;;;;;;4.63;3.55;;;;;;;27.07;49.88;98558.03;2061169;28;20054;-47
2023/06/27 04:05:39;;;;;;;3.45;3.15;;;;;;;27.00;49.78;98562.91;2051138;28;20054;-48
2023/06/27 04:06:40;;;;;;;8.55;4.00;;;;;;;26.88;50.00;98555.72;2058026;28;20038;-48
2023/06/27 04:07:42;;;;;;;5.05;2.88;;;;;;;26.79;49.69;98554.56;2060622;28;20439;-48
2023/06/27 04:08:43;;;;;;;5.80;3.47;;;;;;;26.73;50.12;98550.16;2060815;28;20049;-49
2023/06/27 04:09:44;;;;;;;4.82;3.47;;;;;;;26.72;49.80;98553.97;2061249;28;20512;-49
2023/06/27 04:10:45;;;;;;;4.88;3.72;;;;;;;26.67;49.96;98559.38;2060241;28;20054;-50
2023/06/27 04:11:47;;;;;;;5.22;3.88;;;;;;;26.62;50.34;98549.25;2062751;28;20129;-48
2023/06/27 04:12:48;;;;;;;5.38;4.22;;;;;;;26.61;50.58;98553.06;2060053;28;21737;-48
2023/06/27 04:13:53;;;;;;;6.03;3.80;;;;;;;26.61;50.31;98544.09;2062317;28;20152;-48
2023/06/27 04:14:55;;;;;;;4.65;3.53;;;;;;;26.63;50.31;98544.63;2058190;28;20042;-47
2023/06/27 04:15:56;;;;;;;4.35;3.13;;;;;;;26.61;50.62;98555.78;2061302;28;20046;-47
2023/06/27 04:16:58;;;;;;;8.85;4.72;;;;;;;26.59;50.67;98548.94;2062447;28;20133;-48
2023/06/27 04:17:59;;;;;;;3.90;3.50;;;;;;;26.61;50.68;98552.25;2059557;28;20053;-48
2023/06/27 04:19:01;;;;;;;3.85;3.20;;;;;;;26.59;50.89;98538.06;2059254;28;20531;-47
2023/06/27 04:20:02;;;;;;;5.55;3.15;;;;;;;26.59;51.11;98541.59;2060803;28;20061;-48
2023/06/27 04:21:04;;;;;;;8.32;3.90;;;;;;;26.65;51.25;98547.91;2060535;28;20141;-48
2023/06/27 04:22:04;;;;;;;5.63;4.65;;;;;;;26.61;50.87;98544.91;2061628;28;20073;-48
2023/06/27 04:23:06;;;;;;;7.22;3.28;;;;;;;26.62;51.21;98543.00;2060099;28;20042;-50
2023/06/27 04:24:07;;;;;;;5.82;3.83;;;;;;;26.54;51.33;98547.00;2053638;28;20045;-48
2023/06/27 04:25:11;;;;;;;5.47;4.25;;;;;;;26.52;51.42;98544.53;2057830;28;20977;-48
2023/06/27 04:26:15;;;;;;;5.20;3.80;;;;;;;26.52;51.52;98543.69;2058838;28;20050;-48
2023/06/27 04:27:16;;;;;;;5.75;3.33;;;;;;;26.52;51.00;98544.53;2056437;28;20579;-50
2023/06/27 04:28:17;;;;;;;7.97;3.90;;;;;;;26.52;51.15;98550.00;2061346;28;20134;-48
2023/06/27 04:29:20;;;;;;;4.90;3.33;;;;;;;26.56;51.08;98544.84;2058513;28;20046;-48
2023/06/27 04:30:21;;;;;;;7.53;4.13;;;;;;;26.54;51.25;98543.47;2061443;28;20046;-47
2023/06/27 04:31:25;;;;;;;5.93;3.47;;;;;;;26.56;51.58;98547.56;2058302;28;20049;-48
2023/06/27 04:32:26;;;;;;;7.63;4.10;;;;;;;26.56;51.25;98541.31;2062184;28;20149;-48
2023/06/27 04:33:28;;;;;;;7.03;3.10;;;;;;;26.59;51.14;98544.31;2056038;28;20056;-49
2023/06/27 04:34:29;;;;;;;7.07;3.78;;;;;;;26.62;51.33;98540.28;2059343;28;20140;-49
2023/06/27 04:35:31;;;;;;;6.13;3.90;;;;;;;26.65;51.39;98546.00;2060628;28;20046;-49
2023/06/27 04:36:34;;;;;;;6.57;4.65;;;;;;;26.62;51.35;98543.81;2061098;28;20432;-50
2023/06/27 04:37:37;;;;;;;4.25;3.72;;;;;;;26.62;51.70;98548.44;2062155;28;20054;-47
2023/06/27 04:38:38;;;;;;;5.38;3.67;;;;;;;26.67;51.72;98548.47;2064923;28;20053;-48
2023/06/27 04:39:39;;;;;;;4.35;3.85;;;;;;;26.67;51.51;98552.00;2057467;28;20121;-48
2023/06/27 04:40:41;;;;;;;5.97;3.92;;;;;;;26.70;51.37;98556.13;2063018;28;20045;-48
2023/06/27 04:41:43;;;;;;;7.03;3.30;;;;;;;26.71;51.69;98553.13;2061884;28;20436;-51
2023/06/27 04:42:45;;;;;;;6.28;3.30;;;;;;;26.74;51.63;98549.91;2062787;28;20042;-48
2023/06/27 04:43:47;;;;;;;7.40;3.45;;;;;;;26.73;51.87;98550.16;2060011;28;20054;-48
2023/06/27 04:44:49;;;;;;;3.95;3.10;;;;;;;26.71;51.69;98552.31;2061900;28;21202;-50
2023/06/27 04:45:51;;;;;;;4.30;3.60;;;;;;;26.69;51.94;98555.31;2065695;28;20092;-48
2023/06/27 04:46:52;;;;;;;5.38;3.53;;;;;;;26.71;52.06;98552.31;2062367;28;20057;-51
2023/06/27 04:47:54;;;;;;;6.53;3.17;;;;;;;26.75;51.55;98553.44;2063034;28;20050;-47
2023/06/27 04:48:56;;;;;;;7.10;3.78;;;;;;;26.77;51.76;98562.16;2063537;28;20420;-47
2023/06/27 04:49:58;;;;;;;4.22;3.50;;;;;;;26.78;52.01;98565.72;2062720;28;20089;-47
2023/06/27 04:50:59;;;;;;;7.22;3.67;;;;;;;26.80;51.95;98564.38;2062600;28;20078;-50
2023/06/27 04:52:01;;;;;;;4.88;3.28;;;;;;;26.79;51.72;98565.44;2065003;28;20518;-47
2023/06/27 04:53:03;;;;;;;6.57;3.67;;;;;;;26.79;51.97;98565.44;2066485;28;20903;-48